createdAt,value
2023-03-27T00:00:35.597Z,77.73
2023-03-27T00:03:07.238Z,77.77
2023-03-27T00:05:38.865Z,77.91
2023-03-27T00:08:10.500Z,77.83
2023-03-27T00:10:42.054Z,77.97
2023-03-27T00:13:13.605Z,78.14
2023-03-27T00:15:46.152Z,77.99
2023-03-27T00:18:18.008Z,77.88
2023-03-27T00:20:49.610Z,77.57
2023-03-27T00:23:22.390Z,77.43
2023-03-27T00:25:54.459Z,77.65
2023-03-27T00:28:28.763Z,77.50
2023-03-27T00:31:00.741Z,78.03
2023-03-27T00:33:32.403Z,77.29
2023-03-27T00:36:04.288Z,77.37
2023-03-27T00:38:36.697Z,77.30
2023-03-27T00:41:08.764Z,76.75
2023-03-27T00:43:43.882Z,77.06
2023-03-27T00:46:15.619Z,76.91
2023-03-27T00:48:51.495Z,77.23
2023-03-27T00:51:26.559Z,77.65
2023-03-27T00:53:58.963Z,77.45
2023-03-27T00:56:30.730Z,77.66
2023-03-27T00:59:05.358Z,77.50
2023-03-27T01:01:37.469Z,77.36
2023-03-27T01:04:09.673Z,77.05
2023-03-27T01:06:42.399Z,77.41
2023-03-27T01:09:20.297Z,78.54
2023-03-27T01:12:19.025Z,78.33
2023-03-27T01:14:57.646Z,78.95
2023-03-27T01:17:42.817Z,78.86
2023-03-27T01:21:00.354Z,79.62
2023-03-27T01:23:59.385Z,79.41
2023-03-27T01:26:38.227Z,80.76
2023-03-27T01:29:30.433Z,82.04
2023-03-27T01:32:34.944Z,83.25
2023-03-27T01:35:31.271Z,84.57
2023-03-27T01:38:21.098Z,85.04
2023-03-27T01:41:04.967Z,86.50
2023-03-27T01:43:51.538Z,86.54
2023-03-27T01:46:29.332Z,86.97
2023-03-27T01:49:10.369Z,86.88
2023-03-27T01:51:46.977Z,87.95
2023-03-27T01:54:30.822Z,87.79
2023-03-27T01:57:24.220Z,87.33
2023-03-27T02:00:17.429Z,88.56
2023-03-27T02:02:59.758Z,87.27
2023-03-27T02:05:48.051Z,87.04
2023-03-27T02:08:39.563Z,87.70
2023-03-27T02:11:11.191Z,88.38
2023-03-27T02:13:46.686Z,88.10
2023-03-27T02:16:23.126Z,88.74
2023-03-27T02:18:59.725Z,89.09
2023-03-27T02:21:34.346Z,88.22
2023-03-27T02:24:06.360Z,87.77
2023-03-27T02:26:37.934Z,87.63
2023-03-27T02:29:24.870Z,87.77
2023-03-27T02:32:12.595Z,87.56
2023-03-27T02:34:58.801Z,88.74
2023-03-27T02:37:42.777Z,88.20
2023-03-27T02:40:39.752Z,88.63
2023-03-27T02:43:19.690Z,88.88
2023-03-27T02:45:57.410Z,89.55
2023-03-27T02:48:40.755Z,89.97
2023-03-27T02:51:18.246Z,89.92
2023-03-27T02:54:04.704Z,89.81
2023-03-27T02:56:43.551Z,90.33
2023-03-27T02:59:27.257Z,90.13
2023-03-27T03:01:58.921Z,90.36
2023-03-27T03:04:41.831Z,90.49
2023-03-27T03:07:14.424Z,90.78
2023-03-27T03:09:46.002Z,91.53
2023-03-27T03:12:17.557Z,92.43
2023-03-27T03:14:49.134Z,92.62
2023-03-27T03:17:20.624Z,93.27
2023-03-27T03:19:52.097Z,94.08
2023-03-27T03:22:23.602Z,93.42
2023-03-27T03:24:55.083Z,93.43
2023-03-27T03:27:29.205Z,93.28
2023-03-27T03:30:01.119Z,93.67
2023-03-27T03:32:34.059Z,94.32
2023-03-27T03:35:06.350Z,94.48
2023-03-27T03:37:38.884Z,94.91
2023-03-27T03:40:12.054Z,95.29
2023-03-27T03:42:45.717Z,96.42
2023-03-27T03:45:17.970Z,96.32
2023-03-27T03:47:49.609Z,96.80
2023-03-27T03:50:21.163Z,96.56
2023-03-27T03:52:52.789Z,97.38
2023-03-27T03:55:25.659Z,97.73
2023-03-27T03:57:57.188Z,98.89
2023-03-27T04:00:28.839Z,100.00
2023-03-27T04:03:00.725Z,100.00
2023-03-27T04:05:32.425Z,100.00
2023-03-27T04:08:08.460Z,100.00
2023-03-27T04:10:41.345Z,100.00
2023-03-27T04:13:12.961Z,100.00
2023-03-27T04:15:44.525Z,100.00
2023-03-27T04:18:16.418Z,100.00
2023-03-27T04:20:50.771Z,100.00
2023-03-27T04:23:22.277Z,100.00
2023-03-27T04:25:53.760Z,100.00
2023-03-27T04:28:26.502Z,100.00
2023-03-27T04:30:58.319Z,100.00
2023-03-27T04:33:30.817Z,100.00
2023-03-27T04:36:07.314Z,100.00
2023-03-27T04:38:40.822Z,100.00
2023-03-27T04:41:12.324Z,100.00
2023-03-27T04:43:46.152Z,100.00
2023-03-27T04:46:17.770Z,100.00
2023-03-27T04:48:49.327Z,100.00
2023-03-27T04:51:20.913Z,100.00
2023-03-27T04:53:52.770Z,100.00
2023-03-27T04:56:25.066Z,100.00
2023-03-27T04:58:56.578Z,100.00
2023-03-27T05:01:28.741Z,100.00
2023-03-27T05:04:04.339Z,100.00
2023-03-27T05:06:35.845Z,100.00
2023-03-27T05:09:07.484Z,100.00
2023-03-27T05:11:38.977Z,100.00
2023-03-27T05:14:10.542Z,100.00
2023-03-27T05:16:42.402Z,100.00
2023-03-27T05:19:13.925Z,100.00
2023-03-27T05:21:49.082Z,100.00
2023-03-27T05:24:21.018Z,100.00
2023-03-27T05:26:52.494Z,100.00
2023-03-27T05:29:23.993Z,100.00
2023-03-27T05:31:55.550Z,100.00
2023-03-27T05:34:28.643Z,100.00
2023-03-27T05:37:05.693Z,100.00
2023-03-27T05:39:37.905Z,100.00
2023-03-27T05:42:09.598Z,100.00
2023-03-27T05:44:43.393Z,100.00
2023-03-27T05:47:15.284Z,100.00
2023-03-27T05:49:46.776Z,100.00
2023-03-27T05:52:18.422Z,100.00
2023-03-27T05:54:50.071Z,100.00
2023-03-27T05:57:21.596Z,100.00
2023-03-27T05:59:53.967Z,100.00
2023-03-27T06:02:25.431Z,100.00
2023-03-27T06:04:59.128Z,100.00
2023-03-27T06:07:30.740Z,100.00
2023-03-27T06:10:02.963Z,100.00
2023-03-27T06:12:36.795Z,100.00
2023-03-27T06:15:09.710Z,100.00
2023-03-27T06:17:42.794Z,100.00
2023-03-27T06:20:15.549Z,100.00
2023-03-27T06:22:49.995Z,100.00
2023-03-27T06:25:23.742Z,100.00
2023-03-27T06:27:55.751Z,100.00
2023-03-27T06:30:28.958Z,100.00
2023-03-27T06:33:00.887Z,100.00
2023-03-27T06:35:33.550Z,100.00
2023-03-27T06:38:06.423Z,100.00
2023-03-27T06:40:38.226Z,100.00
2023-03-27T06:43:10.230Z,100.00
2023-03-27T06:45:45.050Z,100.00
2023-03-27T06:48:21.317Z,100.00
2023-03-27T06:50:54.029Z,100.00
2023-03-27T06:53:27.759Z,100.00
2023-03-27T06:56:00.247Z,100.00
2023-03-27T06:58:31.973Z,100.00
2023-03-27T07:01:03.587Z,100.00
2023-03-27T07:03:35.118Z,100.00
2023-03-27T07:06:07.438Z,100.00
2023-03-27T07:08:38.895Z,99.88
2023-03-27T07:11:12.426Z,100.00
2023-03-27T07:13:44.345Z,100.00
2023-03-27T07:16:16.345Z,100.00
2023-03-27T07:18:47.858Z,100.00
2023-03-27T07:21:20.802Z,100.00
2023-03-27T07:23:53.557Z,100.00
2023-03-27T07:26:25.176Z,100.00
2023-03-27T07:28:58.482Z,100.00
2023-03-27T07:31:51.049Z,100.00
2023-03-27T07:34:23.911Z,100.00
2023-03-27T07:36:57.507Z,100.00
2023-03-27T07:39:28.988Z,100.00
2023-03-27T07:42:00.536Z,100.00
2023-03-27T07:44:32.054Z,100.00
2023-03-27T07:47:03.567Z,100.00
2023-03-27T07:49:39.674Z,100.00
2023-03-27T07:52:13.261Z,100.00
2023-03-27T07:54:48.062Z,100.00
2023-03-27T07:57:19.639Z,100.00
2023-03-27T07:59:54.874Z,100.00
2023-03-27T08:02:27.298Z,100.00
2023-03-27T08:04:58.854Z,100.00
2023-03-27T08:07:31.036Z,100.00
2023-03-27T08:10:04.621Z,100.00
2023-03-27T08:12:36.871Z,100.00
2023-03-27T08:15:10.431Z,100.00
2023-03-27T08:17:42.038Z,100.00
2023-03-27T08:20:15.357Z,100.00
2023-03-27T08:22:47.075Z,100.00
2023-03-27T08:25:18.835Z,100.00
2023-03-27T08:27:50.784Z,100.00
2023-03-27T08:30:23.676Z,100.00
2023-03-27T08:32:56.085Z,100.00
2023-03-27T08:35:27.720Z,100.00
2023-03-27T08:37:59.357Z,100.00
2023-03-27T08:40:33.910Z,100.00
2023-03-27T08:43:14.596Z,100.00
2023-03-27T08:45:55.867Z,99.83
2023-03-27T08:48:39.442Z,100.00
2023-03-27T08:51:52.499Z,99.75
2023-03-27T08:54:32.525Z,99.69
2023-03-27T08:57:18.664Z,98.78
2023-03-27T08:59:59.984Z,99.60
2023-03-27T09:02:52.855Z,98.07
2023-03-27T09:05:37.100Z,96.58
2023-03-27T09:08:25.743Z,95.76
2023-03-27T09:11:21.775Z,94.73
2023-03-27T09:13:53.825Z,93.57
2023-03-27T09:16:34.589Z,92.18
2023-03-27T09:19:20.261Z,92.65
2023-03-27T09:21:58.076Z,93.03
2023-03-27T09:24:39.254Z,93.61
2023-03-27T09:27:23.254Z,92.65
2023-03-27T09:30:05.505Z,89.21
2023-03-27T09:32:43.007Z,90.15
2023-03-27T09:35:15.787Z,89.61
2023-03-27T09:37:58.661Z,89.19
2023-03-27T09:40:42.872Z,89.73
2023-03-27T09:43:18.665Z,89.26
2023-03-27T09:45:53.529Z,87.61
2023-03-27T09:48:50.195Z,88.05
2023-03-27T09:51:41.928Z,86.77
2023-03-27T09:54:17.764Z,83.25
2023-03-27T09:56:51.920Z,83.76
2023-03-27T09:59:29.508Z,84.28
2023-03-27T10:02:21.577Z,79.75
2023-03-27T10:05:18.452Z,79.33
2023-03-27T10:07:50.088Z,78.10
2023-03-27T10:10:21.833Z,77.94
2023-03-27T10:12:57.166Z,78.84
2023-03-27T10:15:46.927Z,78.05
2023-03-27T10:18:27.689Z,76.36
2023-03-27T10:21:02.449Z,76.42
2023-03-27T10:23:49.687Z,75.94
2023-03-27T10:26:26.834Z,76.59
2023-03-27T10:29:05.069Z,76.77
2023-03-27T10:31:40.162Z,75.48
2023-03-27T10:34:51.510Z,75.58
2023-03-27T10:37:31.676Z,74.79
2023-03-27T10:40:09.430Z,74.30
2023-03-27T10:42:41.321Z,73.62
2023-03-27T10:45:19.674Z,71.87
2023-03-27T10:47:59.186Z,71.06
2023-03-27T10:50:53.338Z,72.84
2023-03-27T10:53:47.679Z,72.03
2023-03-27T10:56:31.644Z,67.96
2023-03-27T10:59:14.118Z,67.75
2023-03-27T11:01:52.559Z,68.66
2023-03-27T11:04:30.445Z,69.64
2023-03-27T11:07:05.499Z,68.64
2023-03-27T11:09:45.497Z,67.97
2023-03-27T11:12:20.628Z,67.34
2023-03-27T11:14:55.085Z,67.03
2023-03-27T11:17:36.196Z,67.43
2023-03-27T11:20:21.132Z,66.86
2023-03-27T11:23:04.562Z,66.86
2023-03-27T11:25:46.864Z,68.11
2023-03-27T11:28:43.427Z,67.43
2023-03-27T11:31:39.311Z,70.79
2023-03-27T11:34:29.273Z,72.53
2023-03-27T11:37:15.573Z,70.62
2023-03-27T11:39:53.931Z,68.92
2023-03-27T11:42:32.395Z,68.00
2023-03-27T11:45:07.324Z,69.11
2023-03-27T11:47:41.791Z,64.00
2023-03-27T11:50:22.811Z,64.75
2023-03-27T11:53:23.972Z,63.73
2023-03-27T11:56:08.805Z,64.15
2023-03-27T11:58:42.861Z,66.21
2023-03-27T12:01:32.315Z,63.79
2023-03-27T12:04:06.911Z,64.39
2023-03-27T12:07:06.794Z,65.35
2023-03-27T12:09:57.007Z,65.71
2023-03-27T12:13:08.014Z,64.34
2023-03-27T12:16:08.436Z,62.97
2023-03-27T12:19:17.287Z,64.63
2023-03-27T12:25:36.205Z,67.17
2023-03-27T12:28:40.139Z,68.38
2023-03-27T12:31:36.629Z,66.30
2023-03-27T12:34:38.931Z,67.71
2023-03-27T12:37:13.524Z,64.75
2023-03-27T12:39:54.083Z,65.56
2023-03-27T12:43:03.749Z,63.40
2023-03-27T12:45:44.155Z,63.42
2023-03-27T12:48:22.612Z,63.24
2023-03-27T12:50:56.720Z,67.24
2023-03-27T12:53:28.482Z,68.77
2023-03-27T12:56:17.963Z,67.94
2023-03-27T12:58:56.353Z,69.18
2023-03-27T13:01:51.859Z,67.28
2023-03-27T13:04:32.875Z,67.84
2023-03-27T13:07:12.937Z,65.94
2023-03-27T13:10:26.577Z,62.76
2023-03-27T13:13:19.366Z,63.00
2023-03-27T13:15:56.652Z,62.41
2023-03-27T13:18:46.725Z,60.86
2023-03-27T13:21:37.135Z,59.97
2023-03-27T13:24:27.759Z,57.89
2023-03-27T13:27:22.017Z,55.14
2023-03-27T13:29:53.986Z,54.01
2023-03-27T13:32:40.219Z,52.09
2023-03-27T13:35:21.350Z,51.84
2023-03-27T13:37:58.159Z,52.36
2023-03-27T13:40:48.646Z,52.15
2023-03-27T13:43:27.947Z,50.73
2023-03-27T13:46:02.972Z,45.29
2023-03-27T13:49:01.663Z,45.22
2023-03-27T13:52:00.612Z,46.30
2023-03-27T13:55:19.868Z,47.43
2023-03-27T13:58:09.405Z,47.51
2023-03-27T14:00:44.829Z,47.73
2023-03-27T14:03:49.973Z,45.55
2023-03-27T14:06:27.495Z,39.37
2023-03-27T14:09:10.888Z,38.68
2023-03-27T14:12:01.401Z,43.62
2023-03-27T14:14:57.796Z,46.18
2023-03-27T14:17:40.856Z,45.09
2023-03-27T14:20:19.122Z,49.92
2023-03-27T14:23:19.171Z,58.13
2023-03-27T14:26:18.590Z,66.42
2023-03-27T14:28:57.383Z,76.56
2023-03-27T14:31:35.508Z,78.35
2023-03-27T14:34:09.991Z,80.23
2023-03-27T14:36:46.037Z,87.62
2023-03-27T14:39:21.972Z,85.57
2023-03-27T14:41:58.001Z,87.42
2023-03-27T14:44:32.813Z,88.26
2023-03-27T14:47:09.885Z,87.18
2023-03-27T14:49:45.894Z,69.01
2023-03-27T14:52:30.169Z,58.60
2023-03-27T14:55:04.967Z,58.08
2023-03-27T14:57:38.749Z,59.55
2023-03-27T15:00:21.559Z,59.88
2023-03-27T15:02:55.030Z,63.67
2023-03-27T15:05:27.140Z,66.62
2023-03-27T15:07:59.969Z,67.37
2023-03-27T15:10:32.680Z,73.57
2023-03-27T15:13:04.175Z,79.35
2023-03-27T15:15:42.803Z,80.42
2023-03-27T15:18:25.740Z,77.90
2023-03-27T15:21:04.141Z,60.79
2023-03-27T15:23:42.399Z,50.90
2023-03-27T15:26:24.374Z,45.02
2023-03-27T15:29:07.593Z,40.69
2023-03-27T15:31:43.163Z,37.72
2023-03-27T15:34:34.518Z,35.83
2023-03-27T15:37:12.972Z,34.30
2023-03-27T15:40:07.209Z,32.62
2023-03-27T15:42:45.072Z,31.58
2023-03-27T15:45:19.961Z,30.31
2023-03-27T15:48:01.254Z,31.23
2023-03-27T15:50:33.970Z,33.29
2023-03-27T15:53:08.556Z,33.78
2023-03-27T15:55:47.657Z,36.65
2023-03-27T15:58:28.470Z,36.68
2023-03-27T16:01:03.230Z,39.28
2023-03-27T16:03:51.635Z,40.33
2023-03-27T16:06:45.829Z,38.84
2023-03-27T16:09:27.184Z,40.29
2023-03-27T16:11:58.890Z,41.06
2023-03-27T16:14:32.002Z,42.52
2023-03-27T16:17:12.416Z,46.08
2023-03-27T16:19:48.414Z,48.61
2023-03-27T16:22:29.158Z,50.49
2023-03-27T16:25:02.120Z,54.17
2023-03-27T16:27:46.034Z,55.78
2023-03-27T16:30:23.499Z,58.35
2023-03-27T16:32:55.813Z,58.90
2023-03-27T16:35:28.215Z,58.49
2023-03-27T16:37:59.892Z,57.00
2023-03-27T16:40:31.569Z,63.06
2023-03-27T16:43:03.134Z,69.95
2023-03-27T16:45:35.951Z,76.36
2023-03-27T16:48:08.298Z,76.85
2023-03-27T16:53:16.336Z,77.75
2023-03-27T16:55:50.886Z,75.91
2023-03-27T16:58:24.444Z,75.63
2023-03-27T17:00:56.010Z,74.92
2023-03-27T17:03:27.711Z,75.08
2023-03-27T17:06:05.005Z,75.32
2023-03-27T17:08:36.817Z,75.22
2023-03-27T17:11:11.811Z,75.34
2023-03-27T17:13:46.152Z,75.04
2023-03-27T17:16:17.663Z,75.61
2023-03-27T17:18:49.293Z,77.17
2023-03-27T17:21:20.840Z,77.38
2023-03-27T17:23:54.216Z,77.41
2023-03-27T17:26:29.330Z,77.01
2023-03-27T17:29:03.317Z,76.18
2023-03-27T17:31:35.381Z,76.96
2023-03-27T17:34:08.007Z,76.08
2023-03-27T17:36:47.178Z,75.39
2023-03-27T17:39:26.957Z,75.13
2023-03-27T17:41:58.452Z,75.10
2023-03-27T17:44:29.906Z,75.41
2023-03-27T17:47:01.417Z,75.19
2023-03-27T17:49:34.449Z,75.80
2023-03-27T17:52:10.975Z,73.85
2023-03-27T17:54:42.537Z,74.80
2023-03-27T17:57:14.238Z,74.36
2023-03-27T17:59:48.557Z,74.52
2023-03-27T18:02:21.516Z,74.68
2023-03-27T18:04:53.178Z,75.08
2023-03-27T18:07:24.784Z,75.43
2023-03-27T18:09:56.353Z,74.16
2023-03-27T18:12:28.471Z,73.69
2023-03-27T18:15:00.307Z,72.58
2023-03-27T18:17:34.769Z,71.26
2023-03-27T18:20:10.580Z,71.72
2023-03-27T18:22:42.238Z,72.31
2023-03-27T18:25:13.775Z,71.12
2023-03-27T18:27:45.895Z,71.48
2023-03-27T18:30:18.041Z,70.53
2023-03-27T18:32:50.046Z,70.26
2023-03-27T18:35:22.941Z,70.07
2023-03-27T18:37:57.310Z,69.65
2023-03-27T18:40:28.894Z,69.30
2023-03-27T18:43:00.912Z,69.03
2023-03-27T18:45:32.564Z,69.25
2023-03-27T18:48:05.528Z,68.88
2023-03-27T18:50:38.142Z,69.41
2023-03-27T18:53:09.748Z,69.41
2023-03-27T18:55:41.493Z,69.96
2023-03-27T18:58:13.116Z,71.81
2023-03-27T19:00:45.334Z,75.90
2023-03-27T19:03:20.211Z,78.13
2023-03-27T19:05:53.298Z,79.34
2023-03-27T19:08:27.090Z,79.22
2023-03-27T19:10:58.861Z,79.58
2023-03-27T19:13:30.921Z,79.78
2023-03-27T19:16:02.568Z,79.59
2023-03-27T19:18:47.110Z,79.83
2023-03-27T19:21:18.706Z,79.54
2023-03-27T19:23:50.568Z,78.43
2023-03-27T19:26:22.253Z,78.26
2023-03-27T19:28:53.939Z,77.11
2023-03-27T19:31:27.346Z,77.27
2023-03-27T19:33:59.166Z,76.99
2023-03-27T19:36:31.736Z,76.96
2023-03-27T19:39:04.583Z,77.42
2023-03-27T19:41:36.468Z,77.36
2023-03-27T19:44:08.079Z,77.80
2023-03-27T19:46:40.296Z,78.21
2023-03-27T19:49:16.165Z,78.55
2023-03-27T19:51:48.278Z,78.28
2023-03-27T19:54:19.859Z,79.14
2023-03-27T19:56:52.108Z,79.67
2023-03-27T19:59:30.270Z,80.19
2023-03-27T20:02:03.054Z,80.96
2023-03-27T20:04:34.677Z,80.60
2023-03-27T20:07:07.721Z,80.72
2023-03-27T20:09:39.627Z,81.65
2023-03-27T20:12:12.753Z,81.59
2023-03-27T20:14:51.362Z,81.16
2023-03-27T20:17:33.747Z,80.78
2023-03-27T20:20:07.559Z,80.53
2023-03-27T20:22:54.311Z,81.90
2023-03-27T20:25:33.379Z,81.54
2023-03-27T20:28:06.280Z,81.45
2023-03-27T20:30:39.293Z,81.57
2023-03-27T20:33:10.867Z,81.80
2023-03-27T20:35:42.495Z,81.47
2023-03-27T20:38:14.991Z,81.24
2023-03-27T20:40:53.260Z,81.43
2023-03-27T20:43:27.099Z,81.27
2023-03-27T20:45:59.067Z,80.97
2023-03-27T20:48:40.433Z,80.90
2023-03-27T20:51:17.544Z,81.03
2023-03-27T20:53:54.202Z,80.33
2023-03-27T20:56:26.063Z,80.80
2023-03-27T20:58:57.659Z,80.48
2023-03-27T21:01:29.388Z,80.33
2023-03-27T21:04:02.616Z,80.24
2023-03-27T21:06:34.168Z,80.79
2023-03-27T21:09:07.469Z,80.01
2023-03-27T21:11:39.398Z,80.10
2023-03-27T21:14:11.144Z,79.82
2023-03-27T21:16:43.164Z,80.44
2023-03-27T21:19:14.883Z,80.46
2023-03-27T21:21:46.405Z,80.16
2023-03-27T21:24:19.708Z,79.88
2023-03-27T21:26:51.266Z,80.12
2023-03-27T21:29:25.145Z,80.20
2023-03-27T21:31:56.702Z,79.78
2023-03-27T21:34:28.298Z,79.97
2023-03-27T21:36:59.893Z,80.20
2023-03-27T21:39:31.446Z,79.65
2023-03-27T21:42:03.014Z,79.55
2023-03-27T21:44:34.570Z,79.07
2023-03-27T21:47:06.113Z,79.17
2023-03-27T21:49:37.722Z,80.25
2023-03-27T21:52:09.850Z,79.46
2023-03-27T21:54:47.423Z,79.56
2023-03-27T21:57:28.000Z,79.49
2023-03-27T21:59:59.646Z,79.26
2023-03-27T22:02:31.305Z,79.32
2023-03-27T22:05:03.137Z,79.50
2023-03-27T22:07:34.925Z,80.24
2023-03-27T22:10:07.000Z,80.42
2023-03-27T22:12:39.397Z,80.23
2023-03-27T22:15:10.923Z,79.95
2023-03-27T22:17:42.497Z,80.36
2023-03-27T22:20:17.286Z,79.87
2023-03-27T22:22:48.929Z,79.50
2023-03-27T22:25:20.558Z,79.15
2023-03-27T22:27:52.425Z,79.44
2023-03-27T22:30:24.080Z,79.66
2023-03-27T22:32:55.732Z,80.34
2023-03-27T22:35:27.572Z,80.14
2023-03-27T22:37:59.303Z,80.49
2023-03-27T22:40:31.119Z,80.43
2023-03-27T22:43:02.768Z,80.57
2023-03-27T22:45:37.263Z,80.31
2023-03-27T22:48:10.046Z,81.05
2023-03-27T22:50:42.771Z,81.65
2023-03-27T22:53:14.390Z,81.84
2023-03-27T22:55:50.155Z,82.87
2023-03-27T22:58:22.148Z,83.04
2023-03-27T23:00:54.905Z,84.18
2023-03-27T23:03:27.601Z,84.09
2023-03-27T23:05:59.800Z,84.92
2023-03-27T23:08:31.500Z,85.46
2023-03-27T23:11:05.495Z,85.71
2023-03-27T23:13:37.299Z,85.45
2023-03-27T23:16:09.834Z,85.72
2023-03-27T23:18:41.643Z,85.84
2023-03-27T23:21:16.468Z,86.17
2023-03-27T23:23:47.974Z,86.44
2023-03-27T23:26:19.568Z,86.36
2023-03-27T23:28:51.267Z,86.70
2023-03-27T23:31:22.814Z,86.70
2023-03-27T23:33:54.367Z,86.62
2023-03-27T23:36:26.005Z,86.57
2023-03-27T23:38:57.530Z,87.27
2023-03-27T23:41:29.573Z,87.29
2023-03-27T23:44:01.258Z,87.05
2023-03-27T23:46:33.844Z,87.17
2023-03-27T23:49:05.542Z,87.13
2023-03-27T23:51:37.119Z,87.40
2023-03-27T23:54:08.883Z,87.06
2023-03-27T23:56:40.642Z,86.51
2023-03-27T23:59:12.258Z,87.09
